PWSweather.com
Personal Weather Stations
Station Observations
IMAZOWIE6
WarszawaPL

WarszawaPL

Lat: 52.27957, Lon: 21.05489

Elevation: 100

Station Type: WS1080

http://stacjapogody.waw.pl/

High Low Average
Temperature 38.1°F3.4°C 32.9°F0.5°C 35.4°F1.9°C
Dew Point 9.4°F-12.6°C -169.1°F-111.7°C -6.4°F-21.3°C
Winds 4.0 mph 6.4 kmh Calm Calm 2.0 mph N3.2 kmh N
Wind Gusts 7.4 mph11.9 kmh 0.6 mph1.0 kmh 4.0 mph6.4 kmh
Humidity 34% 10% 24%
Pressure 29.48 in998.3 mb 29.35 in993.9 mb -
Precipitation 0.00 in0.0 mm - -
Hour Temp Dew Point Humidity Winds Wind Gusts Pressure Precip Precip Rate Daily Precip Total
12:05 AM 37.2°F2.9°C -169.1°F-111.7°C - 2.0 mph N3.2 kmh N 3.4 mph5.5 kmh 29.45 in997.3 mb 0.00 in0.0 mm 0.00 in0.0 mm 0.00 in0.0 mm
12:20 AM 37.2°F2.9°C -169.1°F-111.7°C - 2.8 mph N4.5 kmh N 4.8 mph7.7 kmh 29.45 in997.3 mb 0.00 in0.0 mm 0.00 in0.0 mm 0.00 in0.0 mm
12:35 AM 37.2°F2.9°C -169.1°F-111.7°C - 2.0 mph N3.2 kmh N 5.4 mph8.7 kmh 29.44 in997.0 mb 0.00 in0.0 mm 0.00 in0.0 mm 0.00 in0.0 mm
12:50 AM 37.2°F2.9°C -169.1°F-111.7°C - 2.8 mph N4.5 kmh N 4.0 mph6.4 kmh 29.44 in997.0 mb 0.00 in0.0 mm 0.00 in0.0 mm 0.00 in0.0 mm
01:05 AM 37.4°F3.0°C -14.2°F-25.7°C 10% 2.0 mph N3.2 kmh N 4.0 mph6.4 kmh 29.44 in997.0 mb 0.00 in0.0 mm 0.00 in0.0 mm 0.00 in0.0 mm
01:20 AM 37.6°F3.1°C -12.2°F-24.6°C 11% 1.4 mph N2.3 kmh N 3.4 mph5.5 kmh 29.44 in997.0 mb 0.00 in0.0 mm 0.00 in0.0 mm 0.00 in0.0 mm
01:35 AM 37.6°F3.1°C -12.2°F-24.6°C 11% 2.8 mph N4.5 kmh N 4.0 mph6.4 kmh 29.43 in996.6 mb 0.00 in0.0 mm 0.00 in0.0 mm 0.00 in0.0 mm
01:50 AM 37.6°F3.1°C -10.5°F-23.6°C 12% 2.0 mph N3.2 kmh N 4.0 mph6.4 kmh 29.43 in996.6 mb 0.00 in0.0 mm 0.00 in0.0 mm 0.00 in0.0 mm
02:05 AM 37.8°F3.2°C -10.4°F-23.6°C 12% 2.0 mph N3.2 kmh N 4.0 mph6.4 kmh 29.43 in996.6 mb 0.00 in0.0 mm 0.00 in0.0 mm 0.00 in0.0 mm
02:20 AM 37.9°F3.3°C -8.6°F-22.6°C 13% 2.0 mph N3.2 kmh N 4.0 mph6.4 kmh 29.42 in996.3 mb 0.00 in0.0 mm 0.00 in0.0 mm 0.00 in0.0 mm
02:35 AM 38.1°F3.4°C -7.0°F-21.7°C 14% 2.0 mph N3.2 kmh N 3.4 mph5.5 kmh 29.41 in995.9 mb 0.00 in0.0 mm 0.00 in0.0 mm 0.00 in0.0 mm
02:50 AM 37.9°F3.3°C -7.2°F-21.8°C 14% 2.8 mph N4.5 kmh N 4.8 mph7.7 kmh 29.42 in996.3 mb 0.00 in0.0 mm 0.00 in0.0 mm 0.00 in0.0 mm
03:05 AM 38.1°F3.4°C -5.6°F-20.9°C 15% 2.0 mph N3.2 kmh N 4.0 mph6.4 kmh 29.41 in995.9 mb 0.00 in0.0 mm 0.00 in0.0 mm 0.00 in0.0 mm
03:20 AM 37.9°F3.3°C -4.4°F-20.2°C 16% 2.8 mph N4.5 kmh N 5.4 mph8.7 kmh 29.40 in995.6 mb 0.00 in0.0 mm 0.00 in0.0 mm 0.00 in0.0 mm
03:35 AM 37.8°F3.2°C -4.6°F-20.3°C 16% 2.0 mph N3.2 kmh N 4.0 mph6.4 kmh 29.39 in995.3 mb 0.00 in0.0 mm 0.00 in0.0 mm 0.00 in0.0 mm
03:50 AM 37.6°F3.1°C -3.5°F-19.7°C 17% 2.8 mph N4.5 kmh N 4.8 mph7.7 kmh 29.39 in995.3 mb 0.00 in0.0 mm 0.00 in0.0 mm 0.00 in0.0 mm
04:05 AM 37.6°F3.1°C -3.5°F-19.7°C 17% 2.0 mph N3.2 kmh N 4.8 mph7.7 kmh 29.39 in995.3 mb 0.00 in0.0 mm 0.00 in0.0 mm 0.00 in0.0 mm
04:20 AM 37.8°F3.2°C -3.3°F-19.6°C 17% 4.0 mph N6.4 kmh N 7.4 mph11.9 kmh 29.39 in995.3 mb 0.00 in0.0 mm 0.00 in0.0 mm 0.00 in0.0 mm
04:35 AM 37.8°F3.2°C -2.1°F-18.9°C 18% 3.4 mph N5.5 kmh N 5.4 mph8.7 kmh 29.38 in994.9 mb 0.00 in0.0 mm 0.00 in0.0 mm 0.00 in0.0 mm
04:50 AM 37.8°F3.2°C -2.1°F-18.9°C 18% 2.8 mph N4.5 kmh N 6.8 mph10.9 kmh 29.38 in994.9 mb 0.00 in0.0 mm 0.00 in0.0 mm 0.00 in0.0 mm
05:05 AM 37.6°F3.1°C -2.3°F-19.1°C 18% 2.0 mph N3.2 kmh N 4.0 mph6.4 kmh 29.37 in994.6 mb 0.00 in0.0 mm 0.00 in0.0 mm 0.00 in0.0 mm
05:20 AM 37.6°F3.1°C -2.3°F-19.1°C 18% 2.0 mph N3.2 kmh N 4.0 mph6.4 kmh 29.37 in994.6 mb 0.00 in0.0 mm 0.00 in0.0 mm 0.00 in0.0 mm
05:35 AM 37.4°F3.0°C -1.3°F-18.5°C 19% 2.0 mph N3.2 kmh N 6.2 mph10.0 kmh 29.37 in994.6 mb 0.00 in0.0 mm 0.00 in0.0 mm 0.00 in0.0 mm
05:50 AM 37.4°F3.0°C -1.3°F-18.5°C 19% 3.4 mph N5.5 kmh N 4.8 mph7.7 kmh 29.37 in994.6 mb 0.00 in0.0 mm 0.00 in0.0 mm 0.00 in0.0 mm
06:05 AM 37.2°F2.9°C -1.5°F-18.6°C 19% 3.4 mph N5.5 kmh N 5.4 mph8.7 kmh 29.37 in994.6 mb 0.00 in0.0 mm 0.00 in0.0 mm 0.00 in0.0 mm
06:20 AM 37.0°F2.8°C -2.7°F-19.3°C 18% 2.0 mph N3.2 kmh N 4.0 mph6.4 kmh 29.36 in994.2 mb 0.00 in0.0 mm 0.00 in0.0 mm 0.00 in0.0 mm
06:35 AM 36.7°F2.6°C -3.0°F-19.4°C 18% 2.8 mph N4.5 kmh N 5.4 mph8.7 kmh 29.36 in994.2 mb 0.00 in0.0 mm 0.00 in0.0 mm 0.00 in0.0 mm
06:50 AM 36.3°F2.4°C -4.5°F-20.3°C 17% 2.0 mph N3.2 kmh N 4.0 mph6.4 kmh 29.35 in993.9 mb 0.00 in0.0 mm 0.00 in0.0 mm 0.00 in0.0 mm
07:05 AM 36.0°F2.2°C -6.0°F-21.1°C 16% 2.8 mph N4.5 kmh N 6.2 mph10.0 kmh 29.36 in994.2 mb 0.00 in0.0 mm 0.00 in0.0 mm 0.00 in0.0 mm
07:20 AM 35.8°F2.1°C -8.9°F-22.7°C 14% 2.8 mph N4.5 kmh N 5.4 mph8.7 kmh 29.36 in994.2 mb 0.00 in0.0 mm 0.00 in0.0 mm 0.00 in0.0 mm
07:35 AM 35.6°F2.0°C -10.5°F-23.6°C 13% 2.0 mph N3.2 kmh N 4.0 mph6.4 kmh 29.35 in993.9 mb 0.00 in0.0 mm 0.00 in0.0 mm 0.00 in0.0 mm
07:50 AM 35.4°F1.9°C -12.2°F-24.6°C 12% 2.0 mph N3.2 kmh N 6.8 mph10.9 kmh 29.36 in994.2 mb 0.00 in0.0 mm 0.00 in0.0 mm 0.00 in0.0 mm
08:05 AM 35.4°F1.9°C -12.2°F-24.6°C 12% 3.4 mph N5.5 kmh N 6.2 mph10.0 kmh 29.36 in994.2 mb 0.00 in0.0 mm 0.00 in0.0 mm 0.00 in0.0 mm
08:20 AM 35.1°F1.7°C -14.2°F-25.7°C 11% 2.8 mph N4.5 kmh N 5.4 mph8.7 kmh 29.36 in994.2 mb 0.00 in0.0 mm 0.00 in0.0 mm 0.00 in0.0 mm
08:35 AM 34.9°F1.6°C -14.4°F-25.8°C 11% 3.4 mph N5.5 kmh N 5.4 mph8.7 kmh 29.36 in994.2 mb 0.00 in0.0 mm 0.00 in0.0 mm 0.00 in0.0 mm
08:50 AM 34.5°F1.4°C -12.9°F-24.9°C 12% 2.0 mph N3.2 kmh N 5.4 mph8.7 kmh 29.36 in994.2 mb 0.00 in0.0 mm 0.00 in0.0 mm 0.00 in0.0 mm
09:05 AM 34.5°F1.4°C -11.4°F-24.1°C 13% 2.0 mph N3.2 kmh N 4.8 mph7.7 kmh 29.36 in994.2 mb 0.00 in0.0 mm 0.00 in0.0 mm 0.00 in0.0 mm
09:20 AM 34.2°F1.2°C -10.2°F-23.4°C 14% 2.8 mph N4.5 kmh N 5.4 mph8.7 kmh 29.36 in994.2 mb 0.00 in0.0 mm 0.00 in0.0 mm 0.00 in0.0 mm
09:35 AM 33.8°F1.0°C -9.1°F-22.8°C 15% 2.0 mph N3.2 kmh N 4.8 mph7.7 kmh 29.36 in994.2 mb 0.00 in0.0 mm 0.00 in0.0 mm 0.00 in0.0 mm
09:50 AM 33.3°F0.7°C -7.0°F-21.7°C 17% 2.0 mph N3.2 kmh N 4.8 mph7.7 kmh 29.37 in994.6 mb 0.00 in0.0 mm 0.00 in0.0 mm 0.00 in0.0 mm
10:05 AM 33.4°F0.8°C -4.6°F-20.3°C 19% 1.4 mph N2.3 kmh N 3.4 mph5.5 kmh 29.37 in994.6 mb 0.00 in0.0 mm 0.00 in0.0 mm 0.00 in0.0 mm
10:20 AM 33.3°F0.7°C -2.7°F-19.3°C 21% 2.8 mph N4.5 kmh N 6.2 mph10.0 kmh 29.37 in994.6 mb 0.00 in0.0 mm 0.00 in0.0 mm 0.00 in0.0 mm
10:35 AM 33.4°F0.8°C -1.5°F-18.6°C 22% 2.0 mph N3.2 kmh N 4.0 mph6.4 kmh 29.37 in994.6 mb 0.00 in0.0 mm 0.00 in0.0 mm 0.00 in0.0 mm
10:50 AM 33.6°F0.9°C -0.5°F-18.1°C 23% 2.0 mph N3.2 kmh N 4.8 mph7.7 kmh 29.37 in994.6 mb 0.01 in0.3 mm 0.05 in1.3 mm 0.01 in0.3 mm
11:05 AM 33.6°F0.9°C 0.4°F-17.6°C 24% 2.0 mph N3.2 kmh N 4.8 mph7.7 kmh 29.36 in994.2 mb 0.01 in0.3 mm 0.00 in0.0 mm 0.01 in0.3 mm
11:20 AM 34.0°F1.1°C 1.6°F-16.9°C 25% 2.8 mph N4.5 kmh N 6.8 mph10.9 kmh 29.36 in994.2 mb 0.00 in0.0 mm 0.00 in0.0 mm 0.01 in0.3 mm
11:35 AM 34.2°F1.2°C 2.6°F-16.3°C 26% 2.0 mph N3.2 kmh N 4.0 mph6.4 kmh 29.36 in994.2 mb 0.00 in0.0 mm 0.00 in0.0 mm 0.01 in0.3 mm
11:50 AM 34.3°F1.3°C 2.8°F-16.2°C 26% 2.0 mph N3.2 kmh N 5.4 mph8.7 kmh 29.37 in994.6 mb 0.00 in0.0 mm 0.00 in0.0 mm 0.01 in0.3 mm
12:05 PM 34.5°F1.4°C 2.9°F-16.2°C 26% 2.0 mph N3.2 kmh N 4.0 mph6.4 kmh 29.36 in994.2 mb 0.00 in0.0 mm 0.00 in0.0 mm 0.01 in0.3 mm
12:20 PM 34.5°F1.4°C 3.7°F-15.7°C 27% 2.0 mph N3.2 kmh N 4.8 mph7.7 kmh 29.36 in994.2 mb 0.00 in0.0 mm 0.00 in0.0 mm 0.01 in0.3 mm
12:36 PM 34.7°F1.5°C 3.9°F-15.6°C 27% 2.8 mph N4.5 kmh N 4.0 mph6.4 kmh 29.36 in994.2 mb 0.00 in0.0 mm 0.00 in0.0 mm 0.01 in0.3 mm
12:47 PM 34.5°F1.4°C 3.7°F-15.7°C 27% 2.0 mph N3.2 kmh N 2.8 mph4.5 kmh 29.37 in994.6 mb 0.00 in0.0 mm 0.00 in0.0 mm 0.01 in0.3 mm
01:03 PM 34.5°F1.4°C 4.5°F-15.3°C 28% 1.4 mph N2.3 kmh N 3.4 mph5.5 kmh 29.37 in994.6 mb 0.00 in0.0 mm 0.00 in0.0 mm 0.01 in0.3 mm
01:19 PM 34.5°F1.4°C 4.5°F-15.3°C 28% 2.0 mph N3.2 kmh N 4.0 mph6.4 kmh 29.37 in994.6 mb 0.00 in0.0 mm 0.00 in0.0 mm 0.01 in0.3 mm
01:35 PM 34.7°F1.5°C 5.5°F-14.7°C 29% 0.6 mph N1.0 kmh N 2.8 mph4.5 kmh 29.37 in994.6 mb 0.00 in0.0 mm 0.00 in0.0 mm 0.01 in0.3 mm
01:51 PM 34.7°F1.5°C 5.5°F-14.7°C 29% 2.8 mph N4.5 kmh N 4.8 mph7.7 kmh 29.37 in994.6 mb 0.00 in0.0 mm 0.00 in0.0 mm 0.01 in0.3 mm
02:07 PM 34.7°F1.5°C 5.5°F-14.7°C 29% 2.0 mph N3.2 kmh N 3.4 mph5.5 kmh 29.37 in994.6 mb 0.00 in0.0 mm 0.00 in0.0 mm 0.01 in0.3 mm
02:17 PM 34.9°F1.6°C 6.4°F-14.2°C 30% 2.8 mph N4.5 kmh N 4.0 mph6.4 kmh 29.37 in994.6 mb 0.00 in0.0 mm 0.00 in0.0 mm 0.01 in0.3 mm
02:33 PM 34.7°F1.5°C 6.2°F-14.3°C 30% 2.0 mph N3.2 kmh N 4.0 mph6.4 kmh 29.37 in994.6 mb 0.00 in0.0 mm 0.00 in0.0 mm 0.01 in0.3 mm
02:49 PM 34.7°F1.5°C 6.2°F-14.3°C 30% 2.8 mph N4.5 kmh N 4.8 mph7.7 kmh 29.37 in994.6 mb 0.00 in0.0 mm 0.00 in0.0 mm 0.01 in0.3 mm
03:05 PM 34.7°F1.5°C 6.9°F-13.9°C 31% 2.8 mph N4.5 kmh N 4.8 mph7.7 kmh 29.37 in994.6 mb 0.00 in0.0 mm 0.00 in0.0 mm 0.01 in0.3 mm
03:21 PM 34.7°F1.5°C 6.9°F-13.9°C 31% 1.4 mph N2.3 kmh N 3.4 mph5.5 kmh 29.37 in994.6 mb 0.01 in0.3 mm 0.05 in1.3 mm 0.02 in0.5 mm
03:32 PM 34.7°F1.5°C 6.9°F-13.9°C 31% 2.0 mph N3.2 kmh N 3.4 mph5.5 kmh 29.37 in994.6 mb 0.01 in0.3 mm 0.00 in0.0 mm 0.02 in0.5 mm
03:48 PM 34.7°F1.5°C 7.6°F-13.6°C 32% 1.4 mph N2.3 kmh N 3.4 mph5.5 kmh 29.37 in994.6 mb 0.01 in0.3 mm 0.00 in0.0 mm 0.02 in0.5 mm
04:04 PM 34.7°F1.5°C 7.6°F-13.6°C 32% 1.4 mph N2.3 kmh N 4.8 mph7.7 kmh 29.37 in994.6 mb 0.01 in0.3 mm 0.00 in0.0 mm 0.02 in0.5 mm
04:20 PM 34.7°F1.5°C 7.6°F-13.6°C 32% 2.0 mph N3.2 kmh N 3.4 mph5.5 kmh 29.37 in994.6 mb 0.00 in0.0 mm 0.00 in0.0 mm 0.02 in0.5 mm
04:36 PM 34.7°F1.5°C 7.6°F-13.6°C 32% 2.0 mph N3.2 kmh N 4.0 mph6.4 kmh 29.38 in994.9 mb 0.00 in0.0 mm 0.00 in0.0 mm 0.02 in0.5 mm
04:47 PM 35.1°F1.7°C 8.6°F-13.0°C 33% 2.0 mph N3.2 kmh N 4.8 mph7.7 kmh 29.38 in994.9 mb 0.00 in0.0 mm 0.00 in0.0 mm 0.02 in0.5 mm
05:02 PM 34.9°F1.6°C 8.5°F-13.1°C 33% 2.0 mph N3.2 kmh N 5.4 mph8.7 kmh 29.38 in994.9 mb 0.00 in0.0 mm 0.00 in0.0 mm 0.02 in0.5 mm
05:17 PM 34.9°F1.6°C 8.5°F-13.1°C 33% 2.8 mph N4.5 kmh N 6.2 mph10.0 kmh 29.38 in994.9 mb 0.00 in0.0 mm 0.00 in0.0 mm 0.02 in0.5 mm
05:33 PM 35.1°F1.7°C 8.6°F-13.0°C 33% 2.0 mph N3.2 kmh N 3.4 mph5.5 kmh 29.38 in994.9 mb 0.00 in0.0 mm 0.00 in0.0 mm 0.02 in0.5 mm
05:49 PM 35.1°F1.7°C 8.6°F-13.0°C 33% 1.4 mph N2.3 kmh N 3.4 mph5.5 kmh 29.38 in994.9 mb 0.00 in0.0 mm 0.00 in0.0 mm 0.02 in0.5 mm
06:05 PM 35.4°F1.9°C 8.9°F-12.8°C 33% 2.0 mph N3.2 kmh N 4.0 mph6.4 kmh 29.38 in994.9 mb 0.00 in0.0 mm 0.00 in0.0 mm 0.02 in0.5 mm
06:21 PM 35.1°F1.7°C 7.9°F-13.4°C 32% 2.8 mph N4.5 kmh N 4.8 mph7.7 kmh 29.39 in995.3 mb 0.00 in0.0 mm 0.00 in0.0 mm 0.02 in0.5 mm
06:36 PM 34.9°F1.6°C 7.8°F-13.4°C 32% 0.6 mph N1.0 kmh N 2.0 mph3.2 kmh 29.39 in995.3 mb 0.00 in0.0 mm 0.00 in0.0 mm 0.02 in0.5 mm
06:51 PM 34.9°F1.6°C 8.5°F-13.1°C 33% 2.8 mph N4.5 kmh N 6.8 mph10.9 kmh 29.40 in995.6 mb 0.00 in0.0 mm 0.00 in0.0 mm 0.02 in0.5 mm
07:06 PM 34.9°F1.6°C 8.5°F-13.1°C 33% 2.8 mph N4.5 kmh N 5.4 mph8.7 kmh 29.40 in995.6 mb 0.00 in0.0 mm 0.00 in0.0 mm 0.02 in0.5 mm
07:21 PM 34.9°F1.6°C 8.5°F-13.1°C 33% Calm Calm 1.4 mph2.3 kmh 29.40 in995.6 mb 0.00 in0.0 mm 0.00 in0.0 mm 0.02 in0.5 mm
07:36 PM 34.9°F1.6°C 8.5°F-13.1°C 33% 0.6 mph N1.0 kmh N 4.0 mph6.4 kmh 29.41 in995.9 mb 0.00 in0.0 mm 0.00 in0.0 mm 0.02 in0.5 mm
07:51 PM 34.9°F1.6°C 9.1°F-12.7°C 34% 0.6 mph N1.0 kmh N 2.8 mph4.5 kmh 29.41 in995.9 mb 0.00 in0.0 mm 0.00 in0.0 mm 0.02 in0.5 mm
08:06 PM 35.1°F1.7°C 8.6°F-13.0°C 33% 0.6 mph N1.0 kmh N 2.0 mph3.2 kmh 29.41 in995.9 mb 0.00 in0.0 mm 0.00 in0.0 mm 0.02 in0.5 mm
08:21 PM 35.2°F1.8°C 9.4°F-12.6°C 34% 0.6 mph N1.0 kmh N 2.0 mph3.2 kmh 29.42 in996.3 mb 0.00 in0.0 mm 0.00 in0.0 mm 0.02 in0.5 mm
08:36 PM 35.2°F1.8°C 9.4°F-12.6°C 34% Calm Calm 1.4 mph2.3 kmh 29.42 in996.3 mb 0.00 in0.0 mm 0.00 in0.0 mm 0.02 in0.5 mm
08:51 PM 35.1°F1.7°C 8.6°F-13.0°C 33% Calm Calm 2.0 mph3.2 kmh 29.43 in996.6 mb 0.00 in0.0 mm 0.00 in0.0 mm 0.02 in0.5 mm
09:06 PM 34.5°F1.4°C 7.5°F-13.6°C 32% Calm Calm 0.6 mph1.0 kmh 29.44 in997.0 mb 0.00 in0.0 mm 0.00 in0.0 mm 0.02 in0.5 mm
09:21 PM 34.2°F1.2°C 6.4°F-14.2°C 31% Calm Calm 0.6 mph1.0 kmh 29.44 in997.0 mb 0.00 in0.0 mm 0.00 in0.0 mm 0.02 in0.5 mm
09:36 PM 34.0°F1.1°C 6.3°F-14.3°C 31% Calm Calm 1.4 mph2.3 kmh 29.45 in997.3 mb 0.00 in0.0 mm 0.00 in0.0 mm 0.02 in0.5 mm
09:51 PM 34.0°F1.1°C 5.6°F-14.7°C 30% Calm Calm 2.0 mph3.2 kmh 29.45 in997.3 mb 0.00 in0.0 mm 0.00 in0.0 mm 0.02 in0.5 mm
10:06 PM 34.0°F1.1°C 5.6°F-14.7°C 30% Calm Calm 0.6 mph1.0 kmh 29.46 in997.6 mb 0.00 in0.0 mm 0.00 in0.0 mm 0.02 in0.5 mm
10:21 PM 34.0°F1.1°C 5.6°F-14.7°C 30% 1.4 mph N2.3 kmh N 2.8 mph4.5 kmh 29.47 in998.0 mb 0.00 in0.0 mm 0.00 in0.0 mm 0.02 in0.5 mm
10:36 PM 34.0°F1.1°C 4.8°F-15.1°C 29% 1.4 mph N2.3 kmh N 3.4 mph5.5 kmh 29.47 in998.0 mb 0.00 in0.0 mm 0.00 in0.0 mm 0.02 in0.5 mm
10:51 PM 34.2°F1.2°C 5.0°F-15.0°C 29% Calm Calm 2.0 mph3.2 kmh 29.47 in998.0 mb 0.00 in0.0 mm 0.00 in0.0 mm 0.02 in0.5 mm
11:06 PM 34.2°F1.2°C 5.0°F-15.0°C 29% Calm Calm 1.4 mph2.3 kmh 29.47 in998.0 mb 0.00 in0.0 mm 0.00 in0.0 mm 0.02 in0.5 mm
11:21 PM 34.0°F1.1°C 4.8°F-15.1°C 29% 1.4 mph N2.3 kmh N 2.8 mph4.5 kmh 29.47 in998.0 mb 0.00 in0.0 mm 0.00 in0.0 mm 0.02 in0.5 mm
11:36 PM 33.4°F0.8°C 4.4°F-15.3°C 29% 1.4 mph N2.3 kmh N 2.8 mph4.5 kmh 29.47 in998.0 mb 0.00 in0.0 mm 0.00 in0.0 mm 0.02 in0.5 mm
11:51 PM 32.9°F0.5°C 3.1°F-16.1°C 28% Calm Calm 2.0 mph3.2 kmh 29.48 in998.3 mb 0.00 in0.0 mm 0.00 in0.0 mm 0.02 in0.5 mm